• Join FlightAware (Why Join?)
  • Login
  • US Flag 
06:22AM EST


 

Airport Tracker/Info


-or-


 

Live Flight TrackerFlight Track Log ✈ ABX921 ✈ 03-May-2013 ✈ KHRL - KCVG

Flight Track Log - Related Links

Times and Time Zones

All times are in EDT time to prevent confusion due to time zone crossing. See the ABX921 flight status page for this flight to view local times or setup timezone preferences in your user account.

Time Position Orientation Groundspeed Altitude Reporting Facility
EDT Latitude Longitude Course Direction KTS MPH feet Rate Location/Type
11:15PM 26.2336 -97.6219 49° Northeast 162 186 2,100  Level Houston Center
11:16PM 26.2892 -97.6122 North 225 259 3,700 1,920 Climbing Houston Center
11:17PM 26.3603 -97.6072 North 265 305 6,100 2,460 Climbing Houston Center
11:18PM 26.4464 -97.5975 North 266 306 9,000 2,220 Climbing Houston Center
11:19PM 26.5317 -97.5883 North 285 328 10,900 1,860 Climbing Houston Center
11:20PM 26.6269 -97.5783 North 341 392 12,900 2,400 Climbing Houston Center
11:21PM 26.7228 -97.5669 North 350 403 15,800 2,160 Climbing Houston Center
11:22PM 26.8253 -97.5083 27° Northeast 394 453 17,300 1,320 Climbing Houston Center
11:23PM 26.9300 -97.4292 34° Northeast 451 519 18,500 1,440 Climbing Houston Center
11:24PM 27.0322 -97.3508 34° Northeast 468 539 20,300 1,680 Climbing Houston Center
11:25PM 27.1436 -97.2658 34° Northeast 478 550 22,000 1,620 Climbing Houston Center
11:26PM 27.2594 -97.1783 34° Northeast 493 567 23,600 1,620 Climbing Houston Center
11:27PM 27.3761 -97.0900 34° Northeast 503 579 25,300 1,800 Climbing Houston Center
11:28PM 27.5017 -96.9936 34° Northeast 506 582 27,300 1,860 Climbing Houston Center
11:29PM 27.6175 -96.9042 34° Northeast 506 582 29,100 1,860 Climbing Houston Center
11:30PM 27.7328 -96.8167 34° Northeast 502 578 31,100 1,860 Climbing Houston Center
11:31PM 27.8467 -96.7294 34° Northeast 497 572 32,900 1,620 Climbing Houston Center
11:32PM 27.9575 -96.6408 35° Northeast 492 566 34,500 1,320 Climbing Houston Center
11:33PM 28.0681 -96.5547 34° Northeast 484 557 35,700 1,200 Climbing Houston Center
11:34PM 28.2050 -96.4500 34° Northeast 496 571 37,000 600 Climbing Houston Center
11:35PM 28.3192 -96.3636 34° Northeast 496 571 37,000  Level Houston Center
11:36PM 28.4331 -96.2753 34° Northeast 497 572 37,000  Level Houston Center
11:37PM 28.5464 -96.1853 35° Northeast 498 573 37,000  Level Houston Center
11:38PM 28.6589 -96.0967 35° Northeast 496 571 37,000  Level Houston Center
11:39PM 28.7703 -96.0081 35° Northeast 492 566 37,000  Level Houston Center
11:40PM 28.8917 -95.9114 35° Northeast 491 565 37,000  Level Houston Center
11:41PM 29.0033 -95.8233 35° Northeast 488 562 37,000  Level Houston Center
11:42PM 29.1172 -95.7339 34° Northeast 494 568 37,000  Level Houston Center
11:43PM 29.2297 -95.6433 35° Northeast 494 568 37,000  Level Houston Center
11:44PM 29.3433 -95.5528 35° Northeast 497 572 37,000  Level Houston Center
11:45PM 29.4572 -95.4625 35° Northeast 496 571 37,000  Level Houston Center
11:46PM 29.5728 -95.3711 35° Northeast 500 575 37,000  Level Houston Center
11:47PM 29.6906 -95.2767 35° Northeast 501 577 37,000  Level Houston Center
11:48PM 29.8078 -95.1822 35° Northeast 501 577 37,000  Level Houston Center
11:49PM 29.9178 -95.0908 36° Northeast 486 559 37,000  Level Houston Center
11:50PM 30.0283 -94.9994 36° Northeast 485 558 37,000  Level Houston Center
11:51PM 30.1400 -94.9075 35° Northeast 489 563 37,000  Level Houston Center
11:52PM 30.2525 -94.8147 35° Northeast 494 568 37,000  Level Houston Center
11:53PM 30.3656 -94.7217 35° Northeast 497 572 37,000  Level Houston Center
11:54PM 30.4747 -94.6317 35° Northeast 496 571 37,000  Level Houston Center
11:55PM 30.5875 -94.5394 35° Northeast 494 568 37,000  Level Houston Center
11:56PM 30.7031 -94.4450 35° Northeast 497 572 37,000  Level Houston Center
11:57PM 30.8122 -94.3531 36° Northeast 496 571 37,000  Level Houston Center
11:58PM 30.9481 -94.2403 35° Northeast 500 575 37,000  Level Houston Center
11:59PM 31.0611 -94.1453 36° Northeast 503 579 37,000  Level Houston Center
12:00AM 31.1750 -94.0503 36° Northeast 504 580 37,000  Level Houston Center
12:01AM 31.2875 -93.9556 36° Northeast 502 578 37,000  Level Houston Center
12:02AM 31.4014 -93.8603 36° Northeast 504 580 37,000  Level Houston Center
12:03AM 31.5172 -93.7622 36° Northeast 504 580 37,000  Level Houston Center
12:04AM 31.6286 -93.6678 36° Northeast 505 581 37,000  Level Houston Center
12:05AM 31.7008 -93.6092 35° Northeast 494 568 37,000  Level Fort Worth Center
12:06AM 31.8150 -93.5142 35° Northeast 494 568 37,000  Level Fort Worth Center
12:07AM 31.9286 -93.4164 36° Northeast 494 568 37,000  Level Fort Worth Center
12:08AM 32.0364 -93.3208 37° Northeast 494 568 37,000  Level Fort Worth Center
12:09AM 32.1481 -93.2253 36° Northeast 494 568 37,000 60 Level Fort Worth Center
12:10AM 32.2714 -93.1114 38° Northeast 501 577 37,200 480 Climbing Fort Worth Center
12:11AM 32.3731 -93.0328 33° Northeast 496 571 38,000 660 Climbing Fort Worth Center
12:13AM 32.5719 -92.8494 38° Northeast 534 615 39,000 360 Climbing Memphis Center
12:14AM 32.6847 -92.7492 37° Northeast 522 601 39,000  Level Memphis Center
12:15AM 32.7950 -92.6506 37° Northeast 504 580 39,000  Level Memphis Center
12:16AM 32.9094 -92.5522 36° Northeast 504 580 39,000  Level Memphis Center
12:17AM 33.0197 -92.4533 37° Northeast 504 580 39,000  Level Memphis Center
12:18AM 33.1342 -92.3542 36° Northeast 499 574 39,000  Level Memphis Center
12:19AM 33.2483 -92.2550 36° Northeast 499 574 39,000  Level Memphis Center
12:20AM 33.3583 -92.1528 38° Northeast 505 581 39,000  Level Memphis Center
12:21AM 33.4767 -92.0533 35° Northeast 512 589 39,000  Level Memphis Center
12:22AM 33.5886 -91.9506 37° Northeast 512 589 39,000  Level Memphis Center
12:23AM 33.7028 -91.8428 38° Northeast 512 589 39,000  Level Memphis Center
12:24AM 33.8186 -91.7422 36° Northeast 512 589 39,000  Level Memphis Center
12:25AM 33.9325 -91.6364 38° Northeast 512 589 39,000  Level Memphis Center
12:26AM 34.0461 -91.5328 37° Northeast 512 589 39,000  Level Memphis Center
12:27AM 34.1619 -91.4317 36° Northeast 512 589 39,000  Level Memphis Center
12:28AM 34.2753 -91.3300 37° Northeast 512 589 39,000  Level Memphis Center
12:29AM 34.3889 -91.2231 38° Northeast 512 589 39,000  Level Memphis Center
12:30AM 34.5000 -91.1208 37° Northeast 507 583 39,000  Level Memphis Center
12:31AM 34.5986 -91.0283 38° Northeast 509 586 39,000  Level Memphis Center
12:32AM 34.7119 -90.9256 37° Northeast 509 586 39,000  Level Memphis Center
12:33AM 34.8250 -90.8200 37° Northeast 509 586 39,000  Level Memphis Center
12:34AM 34.9381 -90.7169 37° Northeast 509 586 39,000  Level Memphis Center
12:35AM 35.0467 -90.6108 39° Northeast 509 586 39,000  Level Memphis Center
12:36AM 35.1700 -90.4967 37° Northeast 509 586 39,000  Level Memphis Center
12:37AM 35.2828 -90.3900 38° Northeast 509 586 39,000  Level Memphis Center
12:38AM 35.3933 -90.2831 38° Northeast 509 586 39,000  Level Memphis Center
12:39AM 35.5058 -90.1761 38° Northeast 509 586 39,000  Level Memphis Center
12:40AM 35.6181 -90.0683 38° Northeast 509 586 39,000  Level Memphis Center
12:41AM 35.7222 -89.9633 39° Northeast 501 577 39,000  Level Memphis Center
12:42AM 35.8322 -89.8578 38° Northeast 496 571 39,000  Level Memphis Center
12:43AM 35.9444 -89.7494 38° Northeast 496 571 39,000  Level Memphis Center
12:44AM 36.0522 -89.6458 38° Northeast 496 571 39,000  Level Memphis Center
12:45AM 36.1622 -89.5394 38° Northeast 496 571 39,000  Level Memphis Center
12:46AM 36.2697 -89.4356 38° Northeast 496 571 39,000  Level Memphis Center
12:47AM 36.3753 -89.3336 38° Northeast 503 579 39,000  Level Memphis Center
12:48AM 36.4828 -89.2239 39° Northeast 501 577 39,000  Level Memphis Center
12:49AM 36.5903 -89.1192 38° Northeast 506 582 39,000  Level Memphis Center
12:50AM 36.6953 -89.0114 39° Northeast 501 577 39,000  Level Memphis Center
12:51AM 36.8025 -88.9058 38° Northeast 491 565 39,000  Level Memphis Center
12:52AM 36.9094 -88.7975 39° Northeast 486 559 39,000  Level Memphis Center
12:53AM 37.0167 -88.6942 38° Northeast 491 565 39,000  Level Memphis Center
12:54AM 37.2119 -88.4956 39° Northeast 498 573 39,000  Level Indianapolis Center
12:55AM 37.3206 -88.3881 38° Northeast 493 567 39,000  Level Indianapolis Center
12:56AM 37.4297 -88.2781 39° Northeast 497 572 39,000  Level Indianapolis Center
12:57AM 37.5358 -88.1703 39° Northeast 489 563 39,000  Level Indianapolis Center
12:58AM 37.6375 -88.0550 42° Northeast 489 563 39,000  Level Indianapolis Center
12:59AM 37.7053 -87.9108 59° Northeast 476 548 39,000  Level Indianapolis Center
01:00AM 37.7667 -87.7619 62° Northeast 474 545 39,000  Level Indianapolis Center
01:02AM 37.8261 -87.6158 63° Northeast 476 548 39,000  Level Indianapolis Center
01:03AM 37.8861 -87.4658 63° Northeast 477 549 39,000  Level Indianapolis Center
01:04AM 37.9461 -87.3158 63° Northeast 478 550 39,000  Level Indianapolis Center
01:05AM 38.0056 -87.1678 63° Northeast 475 547 39,000  Level Indianapolis Center
01:06AM 38.0644 -87.0192 63° Northeast 476 548 39,000  Level Indianapolis Center
01:07AM 38.1231 -86.8711 63° Northeast 476 548 39,000  Level Indianapolis Center
01:08AM 38.1822 -86.7214 63° Northeast 478 550 39,000 -180 Level Indianapolis Center
01:09AM 38.2411 -86.5722 63° Northeast 477 549 38,700 -1,380 Descending Indianapolis Center
01:10AM 38.3006 -86.4239 63° Northeast 472 543 36,300 -2,340 Descending Indianapolis Center
01:11AM 38.3714 -86.2817 58° Northeast 474 545 34,000 -3,120 Descending Indianapolis Center
01:12AM 38.4450 -86.1414 56° Northeast 475 547 30,100 -4,320 Descending Indianapolis Center
01:13AM 38.5203 -85.9978 56° Northeast 484 557 25,400 -4,200 Descending Indianapolis Center
01:14AM 38.5961 -85.8514 56° Northeast 492 566 21,800 -3,660 Descending Indianapolis Center
01:15AM 38.6772 -85.6944 56° Northeast 463 533 18,100 -3,420 Descending Indianapolis Center
01:16AM 38.7456 -85.5636 56° Northeast 448 516 15,000 -3,000 Descending Indianapolis Center
01:17AM 38.8075 -85.4392 57° Northeast 422 486 12,200 -2,040 Descending Indianapolis Center
01:18AM 38.8689 -85.3264 55° Northeast 393 452 11,000 -900 Descending Indianapolis Center
01:19AM 38.9550 -85.3006 13° North 338 389 10,500 -840 Descending Indianapolis Center
01:20AM 39.0292 -85.2747 15° North 299 344 9,400 -1,080 Descending Indianapolis Center
01:21AM 39.0472 -85.2000 73° East 226 260 8,400 -1,080 Descending Indianapolis Center
01:23AM 39.0464 -85.0717 90° East 179 206 6,300 -900 Descending Indianapolis Center
01:24AM 39.0464 -85.0089 90° East 177 204 5,800 -780 Descending Indianapolis Center
01:25AM 39.0458 -84.9461 91° East 177 204 4,800 -1,080 Descending Indianapolis Center
01:26AM 39.0500 -84.8667 86° East 171 197 3,600 -960 Descending Cincinnati TRACON
01:27AM 39.0500 -84.8167 90° East 156 180 2,800 -840 Descending Cincinnati TRACON
01:28AM 39.0500 -84.7500 90° East 145 167 2,000 -780 Descending Cincinnati TRACON
01:29AM 39.0500 -84.7167 90° East 120 138 1,300 540 Descending Cincinnati TRACON
01:30AM 39.0500 -84.6667 90° East 161 185 3,100 1,320 Climbing Cincinnati TRACON
01:31AM 39.0500 -84.6000 90° East 185 213 4,000 420 Climbing Cincinnati TRACON
01:32AM 39.1000 -84.5833 15° North 216 249 4,000  Level Cincinnati TRACON
01:32AM 39.1397 -84.5772 North 209 241 4,000  Level Indianapolis Center
01:33AM 39.1911 -84.6000 341° North 219 252 4,000  Level Indianapolis Center
01:34AM 39.1892 -84.6683 268° West 200 230 4,000  Level Indianapolis Center
01:35AM 39.1833 -84.7000 257° West 187 215 4,000  Level Cincinnati TRACON
01:36AM 39.1833 -84.7667 270° West 188 216 4,000  Level Cincinnati TRACON
01:37AM 39.1833 -84.8333 270° West 189 217 4,000  Level Cincinnati TRACON
01:38AM 39.1811 -84.8783 266° West 189 217 4,000  Level Indianapolis Center
01:39AM 39.1700 -84.9361 256° West 195 224 4,100  Climbing Indianapolis Center
01:40AM 39.1272 -84.9397 184° South 174 200 4,000 -300 Descending Indianapolis Center
01:41AM 39.0983 -84.9378 177° South 156 180 3,500 -240 Descending Indianapolis Center
01:42AM 39.0667 -84.8667 120° Southeast 152 175 3,500 -300 Level Cincinnati TRACON
01:43AM 39.0500 -84.8167 113° Southeast 142 163 2,800 -720 Descending Cincinnati TRACON